• Join FlightAware (Why Join?)
  • Login
  • US Flag 
10:14AM EDT


 

Airport Tracker/Info


-or-


 

Live Flight TrackerFlight Track Log ✈ SWR2819 ✈ 08-May-2013 ✈ LSGG / GVA - LSZH / ZRH

Flight Track Log - Related Links

Times and Time Zones

All times are in EDT time to prevent confusion due to time zone crossing. See the SWR2819 flight status page for this flight to view local times or setup timezone preferences in your user account.

Time Position Orientation Groundspeed Altitude Reporting Facility
EDT Latitude Longitude Course Direction KTS MPH feet Rate Location/Type
03:06PM 46.4250 6.4673 53° Northeast  Level Estimated
03:07PM 46.4871 6.5873 53° Northeast  Level Estimated
03:08PM 46.5490 6.7076 53° Northeast  Level Estimated
03:09PM 46.6108 6.8281 53° Northeast  Level Estimated
03:10PM 46.6725 6.9489 53° Northeast  Level Estimated
03:11PM 46.7199 7.0420 53° Northeast  Level Estimated
03:12PM 46.7672 7.1353 53° Northeast  Level Estimated
03:13PM 46.8127 7.2253 54° Northeast  Level Estimated
03:14PM 46.8581 7.3155 54° Northeast  Level Estimated
03:15PM 46.9034 7.4057 54° Northeast  Level Estimated
03:16PM 46.9504 7.4997 54° Northeast  Level Estimated
03:17PM 46.9973 7.5938 54° Northeast  Level Estimated
03:18PM 47.0480 7.6959 54° Northeast  Level Estimated
03:19PM 47.0987 7.7982 54° Northeast  Level Estimated
03:20PM 47.1492 7.9007 54° Northeast  Level Estimated
03:21PM 47.1997 8.0034 54° Northeast  Level Estimated
03:22PM 47.2501 8.1063 54° Northeast  Level Estimated
03:23PM 47.2983 8.2053 54° Northeast  Level Estimated
03:24PM 47.3465 8.3044 54° Northeast  Level Estimated
03:25PM 47.3946 8.4038 54° Northeast  Level Estimated
03:26PM 47.4492 8.5169 54° Northeast  Level Estimated
03:27PM 47.4647 8.5492 55° Northeast  Level Estimated
03:28PM 47.4647 8.5492 315° West  Level Estimated
03:29PM 47.4647 8.5492 315° West  Level Estimated
03:30PM 47.4647 8.5492 315° West  Level Estimated
03:31PM 47.4647 8.5492 315° West  Level Estimated
03:32PM 47.4647 8.5492 315° West  Level Estimated
03:33PM 47.4647 8.5492 315° West  Level Estimated
03:34PM 47.4647 8.5492 315° West  Level Estimated
03:35PM 47.4647 8.5492 315° West  Level Estimated
03:36PM 47.4647 8.5492 315° West  Level Estimated
03:37PM 47.4647 8.5492 315° West  Level Estimated
03:38PM 47.4647 8.5492 315° West  Level Estimated
03:39PM 47.4647 8.5492 315° West  Level Estimated
03:40PM 47.4647 8.5492 315° West  Level Estimated